createdAt,value
2023-01-13T00:00:04.925Z,27.90
2023-01-13T00:02:39.870Z,29.95
2023-01-13T00:05:12.875Z,32.50
2023-01-13T05:03:17.585Z,42.15
2023-01-13T05:05:53.269Z,45.85
2023-01-13T05:08:26.579Z,49.05
2023-01-13T05:11:05.319Z,43.60
2023-01-13T05:14:04.862Z,42.60
2023-01-13T05:16:54.862Z,41.15
2023-01-13T05:19:29.213Z,38.65
2023-01-13T05:22:19.617Z,38.33
2023-01-13T05:25:10.534Z,51.58
2023-01-13T05:27:42.867Z,39.08
2023-01-13T05:30:15.722Z,41.75
2023-01-13T05:32:48.686Z,40.12
2023-01-13T05:35:21.200Z,41.75
2023-01-13T05:37:53.542Z,39.80
2023-01-13T05:40:44.464Z,51.25
2023-01-13T05:43:22.044Z,51.90
2023-01-13T05:46:00.732Z,39.20
2023-01-13T05:48:39.704Z,37.75
2023-01-13T05:51:13.318Z,42.25
2023-01-13T05:56:18.263Z,42.27
2023-01-13T05:58:50.900Z,37.35
2023-01-13T06:01:23.560Z,43.00
2023-01-13T06:03:56.089Z,42.43
2023-01-13T06:06:28.543Z,45.33
2023-01-13T06:09:01.614Z,49.93
2023-01-13T06:11:34.306Z,40.03
2023-01-13T06:14:07.097Z,40.70
2023-01-13T06:16:39.726Z,42.45
2023-01-13T06:19:13.455Z,45.65
2023-01-13T06:21:45.980Z,45.48
2023-01-13T06:24:18.313Z,38.70
2023-01-13T06:26:50.885Z,44.67
2023-01-13T06:29:23.725Z,32.17
2023-01-13T06:31:56.441Z,41.08
2023-01-13T06:34:29.925Z,40.95
2023-01-13T06:37:02.531Z,37.08
2023-01-13T06:39:36.222Z,33.80
2023-01-13T06:42:26.699Z,37.90
2023-01-13T06:44:59.037Z,39.40
2023-01-13T06:47:31.467Z,34.27
2023-01-13T06:50:04.677Z,44.58
2023-01-13T06:52:37.470Z,44.27
2023-01-13T06:55:10.372Z,31.35
2023-01-13T06:57:54.625Z,38.60
2023-01-13T07:00:28.327Z,36.70
2023-01-13T07:03:17.438Z,39.88
2023-01-13T07:05:55.026Z,33.60
2023-01-13T07:08:27.386Z,33.00
2023-01-13T07:11:04.743Z,34.73
2023-01-13T07:13:55.410Z,33.48
2023-01-13T07:16:28.343Z,33.18
2023-01-13T07:19:00.858Z,35.60
2023-01-13T07:21:33.986Z,36.48
2023-01-13T07:24:06.871Z,30.57
2023-01-13T07:26:39.592Z,35.95
2023-01-13T07:29:12.573Z,46.63
2023-01-13T07:31:45.172Z,34.95
2023-01-13T07:34:17.707Z,38.83
2023-01-13T07:36:50.378Z,38.05
2023-01-13T07:39:23.000Z,34.15
2023-01-13T07:41:59.773Z,39.75
2023-01-13T07:44:32.341Z,34.70
2023-01-13T07:47:06.097Z,38.53
2023-01-13T07:49:39.202Z,33.88
2023-01-13T07:52:11.724Z,39.63
2023-01-13T07:54:44.069Z,36.93
2023-01-13T07:57:17.034Z,38.55
2023-01-13T07:59:49.500Z,42.10
2023-01-13T08:02:22.064Z,39.38
2023-01-13T08:04:55.364Z,38.48
2023-01-13T08:07:28.155Z,34.80
2023-01-13T08:10:02.425Z,36.75
2023-01-13T08:12:55.692Z,38.00
2023-01-13T08:15:27.404Z,34.98
2023-01-13T08:18:00.642Z,39.50
2023-01-13T08:20:33.069Z,42.33
2023-01-13T08:23:07.235Z,43.65
2023-01-13T08:28:11.312Z,46.83
2023-01-13T08:30:44.186Z,47.48
2023-01-13T08:33:16.841Z,49.25
2023-01-13T08:35:50.880Z,41.02
2023-01-13T08:38:24.680Z,48.02
2023-01-13T08:40:57.826Z,47.93
2023-01-13T08:43:30.162Z,46.92
2023-01-13T08:46:05.327Z,52.10
2023-01-13T08:48:38.108Z,46.30
2023-01-13T08:51:10.906Z,50.45
2023-01-13T08:53:44.233Z,54.50
2023-01-13T08:56:17.213Z,47.23
2023-01-13T08:58:49.738Z,53.83
2023-01-13T09:01:24.136Z,50.88
2023-01-13T09:06:29.445Z,50.55
2023-01-13T09:09:02.869Z,46.83
2023-01-13T09:11:55.939Z,46.33
2023-01-13T09:14:50.017Z,53.00
2023-01-13T09:17:23.364Z,51.23
2023-01-13T09:19:55.847Z,51.98
2023-01-13T09:22:28.928Z,50.43
2023-01-13T09:25:01.483Z,49.53
2023-01-13T09:27:35.011Z,50.95
2023-01-13T09:30:09.122Z,48.00
2023-01-13T09:32:41.526Z,45.20
2023-01-13T09:35:14.152Z,47.67
2023-01-13T09:37:46.784Z,41.83
2023-01-13T09:40:22.896Z,49.00
2023-01-13T09:43:24.117Z,44.38
2023-01-13T09:46:01.055Z,43.42
2023-01-13T09:48:40.408Z,41.98
2023-01-13T09:51:35.815Z,44.63
2023-01-13T09:54:32.268Z,46.18
2023-01-13T09:57:14.540Z,40.75
2023-01-13T09:59:47.135Z,46.68
2023-01-13T10:03:08.648Z,44.85
2023-01-13T10:06:04.847Z,40.73
2023-01-13T13:33:51.878Z,32.75
2023-01-13T13:36:47.027Z,34.40
2023-01-13T13:39:45.704Z,32.58
2023-01-13T13:42:38.413Z,34.18
2023-01-13T13:45:40.069Z,34.92
2023-01-13T13:48:31.816Z,35.23
2023-01-13T13:51:07.208Z,39.00
2023-01-13T13:53:42.155Z,41.53
2023-01-13T13:56:21.719Z,37.60
2023-01-13T13:58:54.153Z,33.73
2023-01-13T14:01:31.354Z,36.10
2023-01-13T14:04:22.939Z,40.03
2023-01-13T14:07:00.667Z,38.13
2023-01-13T14:09:46.322Z,31.77
2023-01-13T14:12:22.094Z,35.08
2023-01-13T14:14:56.654Z,40.05
2023-01-13T14:17:31.003Z,37.40
2023-01-13T14:20:09.632Z,36.50
2023-01-13T14:22:44.089Z,36.73
2023-01-13T14:28:08.883Z,35.88
2023-01-13T14:30:42.131Z,36.25
2023-01-13T14:33:23.227Z,41.42
2023-01-13T14:36:26.154Z,39.33
2023-01-13T14:39:14.352Z,34.53
2023-01-13T14:41:49.085Z,39.25
2023-01-13T14:44:34.295Z,36.50
2023-01-13T14:47:29.398Z,36.93
2023-01-13T14:50:27.700Z,38.98
2023-01-13T14:53:01.040Z,37.95
2023-01-13T14:55:40.546Z,32.67
2023-01-13T14:58:26.670Z,33.23
2023-01-13T15:01:29.064Z,41.05
2023-01-13T15:04:28.938Z,33.53
2023-01-13T15:07:01.549Z,34.67
2023-01-13T15:09:40.947Z,30.05
2023-01-13T15:12:23.598Z,34.25
2023-01-13T15:14:58.001Z,37.88
2023-01-13T15:17:50.333Z,31.02
2023-01-13T15:20:25.036Z,35.68
2023-01-13T15:22:59.647Z,35.43
2023-01-13T15:25:51.883Z,33.08
2023-01-13T15:28:27.186Z,40.15
2023-01-13T15:31:04.137Z,37.55
2023-01-13T15:33:37.105Z,36.90
2023-01-13T15:36:23.553Z,35.83
2023-01-13T15:38:56.672Z,31.60
2023-01-13T15:41:47.245Z,39.53
2023-01-13T15:44:38.287Z,38.30
2023-01-13T15:47:10.956Z,36.83
2023-01-13T15:49:45.184Z,33.48
2023-01-13T15:54:54.965Z,32.45
2023-01-13T15:57:33.114Z,34.50
2023-01-13T16:00:13.632Z,31.00
2023-01-13T16:02:46.659Z,32.53
2023-01-13T16:05:19.470Z,36.30
2023-01-13T16:07:52.188Z,32.38
2023-01-13T16:10:27.163Z,33.40
2023-01-13T16:13:00.145Z,31.25
2023-01-13T16:15:33.520Z,34.80
2023-01-13T16:18:07.003Z,37.53
2023-01-13T16:20:40.387Z,38.08
2023-01-13T16:23:13.839Z,30.43
2023-01-13T16:25:47.885Z,34.40
2023-01-13T16:28:28.581Z,32.25
2023-01-13T16:31:01.323Z,31.35
2023-01-13T16:33:33.916Z,30.57
2023-01-13T16:36:12.723Z,35.00
2023-01-13T16:38:45.318Z,34.63
2023-01-13T16:41:19.523Z,31.33
2023-01-13T16:43:52.122Z,32.60
2023-01-13T16:46:30.167Z,36.70
2023-01-13T16:49:07.234Z,36.13
2023-01-13T16:51:40.122Z,34.30
2023-01-13T16:54:12.742Z,30.17
2023-01-13T16:59:18.569Z,38.05
2023-01-13T17:01:52.166Z,33.55
2023-01-13T17:07:02.045Z,31.35
2023-01-13T17:09:34.713Z,32.65
2023-01-13T17:12:07.988Z,33.67
2023-01-13T17:14:42.620Z,25.65
2023-01-13T17:17:28.069Z,36.15
2023-01-13T17:20:01.121Z,33.02
2023-01-13T17:22:34.344Z,31.65
2023-01-13T17:25:07.906Z,38.83
2023-01-13T17:27:41.779Z,36.25
2023-01-13T17:30:15.475Z,35.60
2023-01-13T17:32:48.162Z,32.80
2023-01-13T17:35:22.310Z,33.65
2023-01-13T17:37:56.117Z,33.67
2023-01-13T17:40:28.837Z,41.47
2023-01-13T17:43:01.176Z,35.50
2023-01-13T17:45:33.932Z,43.87
2023-01-13T17:48:08.377Z,37.38
2023-01-13T17:50:41.342Z,37.85
2023-01-13T17:53:14.351Z,44.43
2023-01-13T17:55:55.054Z,38.23
2023-01-13T17:58:27.985Z,39.00
2023-01-13T18:01:00.855Z,45.55
2023-01-13T18:03:33.685Z,41.68
2023-01-13T18:06:12.890Z,41.53
2023-01-13T18:08:45.546Z,47.40
2023-01-13T18:11:19.628Z,40.63
2023-01-13T18:16:27.395Z,47.30
2023-01-13T18:19:20.144Z,42.60
2023-01-13T18:22:11.807Z,40.08
2023-01-13T18:25:02.521Z,46.23
2023-01-13T18:27:39.148Z,38.70
2023-01-13T18:30:12.885Z,43.28
2023-01-13T18:32:46.243Z,42.75
2023-01-13T18:35:19.285Z,45.90
2023-01-13T18:37:52.519Z,50.12
2023-01-13T18:40:25.798Z,37.05
2023-01-13T18:42:59.465Z,47.25
2023-01-13T18:45:33.105Z,41.37
2023-01-13T18:48:06.204Z,43.17
2023-01-13T18:50:39.245Z,41.33
2023-01-13T18:53:11.808Z,44.85
2023-01-13T18:55:44.802Z,41.28
2023-01-13T18:58:17.431Z,41.95
2023-01-13T19:00:49.882Z,40.90
2023-01-13T19:03:30.048Z,37.25
2023-01-13T19:06:08.383Z,40.03
2023-01-13T19:08:40.948Z,44.45
2023-01-13T19:11:13.870Z,42.62
2023-01-13T19:13:46.395Z,41.28
2023-01-13T19:16:22.444Z,38.88
2023-01-13T19:18:55.300Z,40.63
2023-01-13T19:21:27.691Z,47.30
2023-01-13T19:24:00.421Z,39.58
2023-01-13T19:26:33.103Z,43.42
2023-01-13T19:29:05.929Z,43.48
2023-01-13T19:31:38.459Z,41.10
2023-01-13T19:34:11.914Z,40.20
2023-01-13T19:36:44.549Z,42.10
2023-01-13T19:39:17.140Z,42.65
2023-01-13T19:42:07.981Z,40.38
2023-01-13T19:44:58.693Z,40.12
2023-01-13T19:47:31.294Z,40.28
2023-01-13T19:50:05.517Z,39.95
2023-01-13T19:52:38.619Z,36.83
2023-01-13T19:55:12.556Z,35.17
2023-01-13T19:57:45.272Z,41.85
2023-01-13T20:00:20.380Z,37.85
2023-01-13T20:02:53.506Z,37.05
2023-01-13T20:05:26.425Z,41.65
2023-01-13T20:07:59.104Z,44.30
2023-01-13T20:10:31.668Z,34.53
2023-01-13T20:13:05.068Z,40.28
2023-01-13T20:15:40.667Z,33.28
2023-01-13T20:18:13.287Z,33.73
2023-01-13T20:20:45.953Z,32.60
2023-01-13T20:23:19.704Z,32.88
2023-01-13T20:25:52.282Z,40.75
2023-01-13T20:28:24.842Z,32.73
2023-01-13T20:30:57.281Z,39.78
2023-01-13T20:33:29.949Z,35.48
2023-01-13T20:36:02.314Z,36.90
2023-01-13T20:38:38.765Z,33.70
2023-01-13T20:41:29.668Z,36.53
2023-01-13T20:44:02.020Z,34.85
2023-01-13T20:46:34.814Z,39.95
2023-01-13T20:49:09.037Z,35.23
2023-01-13T20:51:41.494Z,40.25
2023-01-13T20:54:14.848Z,43.92
2023-01-13T20:56:47.182Z,40.10
2023-01-13T20:59:19.704Z,38.73
2023-01-13T21:01:52.536Z,41.70
2023-01-13T21:04:25.017Z,36.95
2023-01-13T21:06:57.697Z,36.30
2023-01-13T21:09:30.587Z,43.10
2023-01-13T21:12:20.856Z,40.15
2023-01-13T21:15:11.408Z,42.62
2023-01-13T21:18:02.869Z,39.13
2023-01-13T21:20:36.630Z,41.18
2023-01-13T21:23:10.988Z,52.25
2023-01-13T21:25:43.516Z,46.25
2023-01-13T21:28:17.103Z,44.05
2023-01-13T21:30:50.305Z,39.63
2023-01-13T21:33:23.108Z,44.20
2023-01-13T21:35:55.487Z,45.50
2023-01-13T21:38:30.287Z,39.35
2023-01-13T21:41:08.587Z,43.40
2023-01-13T21:43:59.320Z,42.73
2023-01-13T21:46:50.299Z,46.58
2023-01-13T21:49:22.971Z,39.58
2023-01-13T21:51:55.538Z,50.43
2023-01-13T21:54:28.813Z,35.85
2023-01-13T21:57:01.177Z,39.40
2023-01-13T21:59:33.914Z,39.65
2023-01-13T22:02:23.855Z,41.42
2023-01-13T22:04:42.735Z,39.10
2023-01-13T22:07:15.364Z,36.00
2023-01-13T22:09:48.467Z,36.75
2023-01-13T22:12:22.868Z,34.73
2023-01-13T22:14:56.278Z,35.33
2023-01-13T22:17:30.953Z,40.25
2023-01-13T22:20:04.172Z,35.68
2023-01-13T22:22:36.917Z,37.42
2023-01-13T22:25:11.850Z,38.58
2023-01-13T22:27:45.176Z,48.80
2023-01-13T22:30:21.766Z,39.40
2023-01-13T22:32:54.310Z,34.55
2023-01-13T22:35:26.899Z,42.30
2023-01-13T22:37:59.616Z,36.13
2023-01-13T22:40:32.259Z,35.33
2023-01-13T22:43:05.187Z,31.40
2023-01-13T22:45:39.189Z,34.10
2023-01-13T22:48:11.728Z,37.53
2023-01-13T22:50:45.719Z,36.15
2023-01-13T22:53:18.337Z,38.23
2023-01-13T22:55:58.186Z,44.20
2023-01-13T22:58:30.603Z,39.98
2023-01-13T23:01:15.992Z,42.48
2023-01-13T23:03:51.411Z,45.00
2023-01-13T23:06:25.116Z,41.00
2023-01-13T23:08:57.985Z,43.23
2023-01-13T23:11:31.495Z,41.10
2023-01-13T23:14:06.888Z,42.23
2023-01-13T23:16:41.056Z,43.00
2023-01-13T23:19:13.637Z,44.00
2023-01-13T23:21:46.218Z,40.00
2023-01-13T23:24:19.122Z,49.23
2023-01-13T23:26:51.834Z,44.25
2023-01-13T23:31:57.507Z,38.83
2023-01-13T23:34:30.083Z,47.80
2023-01-13T23:37:02.576Z,43.85
2023-01-13T23:39:36.646Z,46.13
2023-01-13T23:42:09.013Z,46.13
2023-01-13T23:44:41.547Z,53.63
2023-01-13T23:47:14.339Z,48.15
2023-01-13T23:49:47.145Z,46.05
2023-01-13T23:52:19.534Z,45.38
2023-01-13T23:54:52.426Z,43.20
2023-01-13T23:57:24.882Z,47.70
2023-01-13T23:59:57.339Z,40.08
